createdAt,value
2022-11-27T00:00:11.956Z,27.02
2022-11-27T00:05:38.450Z,23.70
2022-11-27T00:10:42.159Z,25.13
2022-11-27T00:15:47.719Z,24.88
2022-11-27T00:20:51.494Z,26.23
2022-11-27T00:25:55.473Z,27.27
2022-11-27T00:31:02.064Z,28.02
2022-11-27T00:36:07.271Z,23.20
2022-11-27T00:41:15.513Z,25.70
2022-11-27T00:46:27.894Z,27.20
2022-11-27T00:51:32.785Z,27.65
2022-11-27T00:56:39.173Z,27.30
2022-11-27T01:01:45.076Z,25.35
2022-11-27T01:11:52.432Z,21.40
2022-11-27T01:16:57.693Z,25.17
2022-11-27T01:22:01.496Z,22.85
2022-11-27T01:27:05.293Z,26.00
2022-11-27T01:32:10.399Z,28.95
2022-11-27T01:37:14.156Z,26.75
2022-11-27T01:42:17.899Z,22.10
2022-11-27T01:47:36.877Z,24.00
2022-11-27T01:52:44.234Z,24.58
2022-11-27T01:57:51.121Z,22.92
2022-11-27T02:02:56.420Z,22.42
2022-11-27T02:08:04.257Z,23.10
2022-11-27T02:13:12.947Z,22.38
2022-11-27T02:18:26.412Z,22.00
2022-11-27T02:23:59.788Z,19.35
2022-11-27T02:29:07.999Z,21.02
2022-11-27T02:34:23.621Z,21.02
2022-11-27T02:39:34.506Z,20.88
2022-11-27T02:44:46.435Z,22.17
2022-11-27T02:49:52.574Z,21.50
2022-11-27T02:55:00.638Z,25.67
2022-11-27T03:00:07.675Z,22.75
2022-11-27T03:05:16.005Z,22.23
2022-11-27T03:10:23.035Z,23.58
2022-11-27T03:15:35.783Z,22.63
2022-11-27T03:20:44.292Z,24.73
2022-11-27T03:25:48.101Z,26.52
2022-11-27T03:30:53.370Z,24.85
2022-11-27T03:35:57.299Z,23.25
2022-11-27T03:41:08.140Z,25.60
2022-11-27T03:46:21.665Z,27.05
2022-11-27T03:51:37.375Z,23.58
2022-11-27T03:56:44.700Z,24.95
2022-11-27T04:01:50.482Z,26.50
2022-11-27T04:06:54.495Z,26.88
2022-11-27T04:11:58.202Z,28.90
2022-11-27T04:17:03.320Z,22.45
2022-11-27T04:22:07.042Z,25.20
2022-11-27T04:27:11.148Z,25.35
2022-11-27T04:32:17.563Z,23.88
2022-11-27T04:37:21.502Z,20.13
2022-11-27T04:42:25.330Z,18.30
2022-11-27T04:47:30.481Z,19.77
2022-11-27T04:52:34.228Z,16.50
2022-11-27T04:57:38.077Z,17.23
2022-11-27T05:02:43.341Z,17.33
2022-11-27T05:07:47.589Z,17.98
2022-11-27T05:12:51.523Z,15.82
2022-11-27T05:17:56.655Z,16.50
2022-11-27T05:23:00.364Z,16.57
2022-11-27T05:28:04.234Z,16.85
2022-11-27T05:33:09.423Z,16.42
2022-11-27T05:38:13.524Z,15.43
2022-11-27T05:43:17.260Z,18.13
2022-11-27T05:48:22.320Z,19.08
2022-11-27T05:53:26.103Z,17.70
2022-11-27T05:58:29.950Z,18.17
2022-11-27T06:03:35.519Z,17.77
2022-11-27T06:08:40.292Z,19.00
2022-11-27T06:13:45.136Z,20.05
2022-11-27T06:18:52.281Z,21.83
2022-11-27T06:23:57.619Z,19.98
2022-11-27T06:29:02.482Z,19.23
2022-11-27T06:34:08.181Z,21.58
2022-11-27T06:39:12.841Z,22.80
2022-11-27T06:44:16.623Z,21.63
2022-11-27T06:49:22.287Z,22.23
2022-11-27T06:54:26.325Z,23.58
2022-11-27T06:59:30.356Z,24.35
2022-11-27T07:04:35.607Z,22.25
2022-11-27T07:09:39.433Z,26.73
2022-11-27T07:14:43.282Z,22.15
2022-11-27T07:19:48.627Z,26.65
2022-11-27T07:24:52.571Z,25.35
2022-11-27T07:29:56.437Z,30.40
2022-11-27T07:35:01.788Z,23.63
2022-11-27T07:40:07.027Z,25.15
2022-11-27T07:45:12.055Z,21.30
2022-11-27T07:50:18.011Z,25.30
2022-11-27T07:55:22.538Z,23.75
2022-11-27T08:00:27.390Z,26.08
2022-11-27T08:05:35.353Z,23.33
2022-11-27T08:10:40.999Z,52.45
2022-11-27T08:15:46.189Z,21.65
2022-11-27T08:20:51.672Z,24.00
2022-11-27T08:25:55.756Z,22.27
2022-11-27T08:31:01.371Z,23.35
2022-11-27T08:36:10.628Z,23.55
2022-11-27T08:41:17.848Z,23.15
2022-11-27T08:46:24.105Z,25.23
2022-11-27T08:51:29.926Z,21.08
2022-11-27T09:01:38.337Z,24.50
2022-11-27T09:06:43.659Z,21.05
2022-11-27T09:11:48.542Z,30.15
2022-11-27T09:16:53.825Z,20.55
2022-11-27T09:21:59.607Z,17.63
2022-11-27T09:27:03.706Z,23.13
2022-11-27T09:32:07.814Z,30.85
2022-11-27T09:37:14.004Z,19.15
2022-11-27T09:42:38.900Z,35.67
2022-11-27T09:47:49.237Z,20.30
2022-11-27T09:52:59.394Z,29.77
2022-11-27T09:58:17.625Z,26.20
2022-11-27T10:03:29.355Z,30.83
2022-11-27T10:08:48.200Z,19.77
2022-11-27T10:14:04.684Z,23.48
2022-11-27T10:19:23.828Z,17.85
2022-11-27T10:24:41.067Z,27.80
2022-11-27T10:29:52.520Z,19.13
2022-11-27T10:35:01.742Z,17.85
2022-11-27T10:40:19.955Z,19.95
2022-11-27T10:45:31.177Z,26.70
2022-11-27T10:50:38.277Z,16.67
2022-11-27T10:56:13.656Z,18.08
2022-11-27T11:01:23.160Z,17.83
2022-11-27T11:06:41.398Z,17.15
2022-11-27T11:11:47.416Z,20.20
2022-11-27T11:16:53.418Z,16.95
2022-11-27T11:22:01.336Z,19.02
2022-11-27T11:27:13.705Z,15.90
2022-11-27T11:32:31.532Z,18.20
2022-11-27T11:37:37.740Z,16.33
2022-11-27T11:43:11.413Z,14.90
2022-11-27T11:48:24.030Z,14.48
2022-11-27T11:53:35.160Z,13.77
2022-11-27T11:58:54.674Z,14.07
2022-11-27T12:04:11.973Z,15.38
2022-11-27T12:09:26.670Z,14.18
2022-11-27T12:14:44.343Z,13.32
2022-11-27T12:20:04.462Z,15.93
2022-11-27T12:25:23.379Z,16.60
2022-11-27T12:30:38.304Z,16.17
2022-11-27T12:35:45.841Z,17.10
2022-11-27T12:41:03.727Z,17.02
2022-11-27T12:46:16.480Z,21.13
2022-11-27T12:51:27.603Z,21.73
2022-11-27T12:56:37.151Z,23.17
2022-11-27T13:01:47.240Z,20.42
2022-11-27T13:07:01.489Z,26.70
2022-11-27T13:12:06.770Z,26.08
2022-11-27T13:17:18.218Z,23.77
2022-11-27T13:22:27.656Z,22.70
2022-11-27T13:27:36.682Z,23.40
2022-11-27T13:32:50.497Z,22.25
2022-11-27T13:38:00.724Z,22.55
2022-11-27T13:43:31.515Z,31.15
2022-11-27T13:48:39.854Z,26.30
2022-11-27T13:53:44.223Z,24.80
2022-11-27T13:58:50.065Z,25.42
2022-11-27T14:03:54.653Z,25.00
2022-11-27T14:09:01.347Z,29.75
2022-11-27T14:14:16.766Z,27.75
2022-11-27T14:19:33.527Z,29.00
2022-11-27T14:24:44.099Z,31.17
2022-11-27T14:29:50.864Z,26.83
2022-11-27T14:34:55.068Z,30.23
2022-11-27T14:39:59.317Z,30.35
2022-11-27T14:45:06.548Z,30.33
2022-11-27T14:50:14.647Z,28.00
2022-11-27T14:55:21.387Z,28.15
2022-11-27T15:00:29.009Z,30.08
2022-11-27T15:05:39.501Z,28.17
2022-11-27T15:10:44.155Z,29.42
2022-11-27T15:15:57.257Z,29.80
2022-11-27T15:21:02.220Z,28.17
2022-11-27T15:26:15.176Z,30.13
2022-11-27T15:31:28.686Z,36.25
2022-11-27T15:36:39.931Z,38.47
2022-11-27T15:41:52.415Z,31.20
2022-11-27T15:47:00.755Z,28.65
2022-11-27T15:52:05.777Z,47.40
2022-11-27T15:57:10.279Z,95.63
2022-11-27T16:02:18.287Z,72.40
2022-11-27T16:07:23.553Z,32.20
2022-11-27T16:12:28.211Z,84.40
2022-11-27T16:17:33.775Z,36.40
2022-11-27T16:22:38.107Z,32.78
2022-11-27T16:27:42.635Z,33.65
2022-11-27T16:32:51.313Z,30.85
2022-11-27T16:37:57.976Z,32.20
2022-11-27T16:43:02.669Z,31.08
2022-11-27T16:48:08.861Z,33.90
2022-11-27T16:53:14.187Z,68.35
2022-11-27T16:58:18.984Z,42.97
2022-11-27T17:03:24.717Z,41.28
2022-11-27T17:08:29.043Z,61.22
2022-11-27T17:13:33.496Z,32.85
2022-11-27T17:18:40.069Z,35.10
2022-11-27T17:23:46.946Z,36.30
2022-11-27T17:28:52.169Z,36.88
2022-11-27T17:34:00.319Z,59.28
2022-11-27T17:39:06.587Z,40.90
2022-11-27T17:44:10.909Z,38.33
2022-11-27T17:49:17.249Z,39.72
2022-11-27T17:54:22.059Z,38.30
2022-11-27T17:59:26.889Z,37.92
2022-11-27T18:04:32.971Z,40.13
2022-11-27T18:09:37.272Z,42.67
2022-11-27T18:14:41.581Z,47.00
2022-11-27T18:19:46.900Z,47.95
2022-11-27T18:24:51.139Z,49.08
2022-11-27T18:29:56.225Z,46.13
2022-11-27T18:35:01.609Z,47.60
2022-11-27T18:40:06.576Z,45.05
2022-11-27T18:45:31.329Z,44.37
2022-11-27T18:50:37.680Z,42.42
2022-11-27T18:55:41.694Z,44.67
2022-11-27T19:00:46.622Z,51.63
2022-11-27T19:05:52.206Z,49.55
2022-11-27T19:10:56.405Z,43.95
2022-11-27T19:16:01.135Z,40.95
2022-11-27T19:21:11.717Z,42.45
2022-11-27T19:26:18.760Z,43.78
2022-11-27T19:31:23.866Z,46.63
2022-11-27T19:36:30.655Z,49.70
2022-11-27T19:41:35.231Z,57.75
2022-11-27T19:46:39.926Z,56.85
2022-11-27T19:51:46.008Z,57.40
2022-11-27T19:56:50.550Z,57.20
2022-11-27T20:01:55.499Z,55.28
2022-11-27T20:07:08.188Z,53.03
2022-11-27T20:12:12.312Z,51.90
2022-11-27T20:17:16.217Z,48.72
2022-11-27T20:22:21.864Z,55.58
2022-11-27T20:32:33.092Z,51.58
2022-11-27T20:37:38.486Z,65.47
2022-11-27T20:42:42.431Z,65.88
2022-11-27T20:47:46.395Z,52.20
2022-11-27T20:52:51.731Z,53.95
2022-11-27T20:57:55.916Z,78.22
2022-11-27T21:02:59.790Z,152.20
2022-11-27T21:08:05.338Z,63.63
2022-11-27T21:13:09.449Z,53.75
2022-11-27T21:18:13.597Z,41.10
2022-11-27T21:23:20.896Z,42.97
2022-11-27T21:28:24.928Z,42.03
2022-11-27T21:33:29.413Z,40.08
2022-11-27T21:38:34.874Z,52.28
2022-11-27T21:43:39.066Z,59.20
2022-11-27T21:48:43.087Z,52.97
2022-11-27T21:53:50.217Z,59.33
2022-11-27T21:58:54.256Z,69.95
2022-11-27T22:03:58.891Z,72.85
2022-11-27T22:09:10.513Z,53.85
2022-11-27T22:14:18.213Z,53.70
2022-11-27T22:19:22.255Z,59.38
2022-11-27T22:24:27.892Z,56.70
2022-11-27T22:29:32.180Z,56.88
2022-11-27T22:34:36.232Z,51.47
2022-11-27T22:39:43.965Z,49.10
2022-11-27T22:44:49.657Z,47.08
2022-11-27T22:49:53.679Z,47.05
2022-11-27T22:54:59.818Z,46.63
2022-11-27T23:00:08.051Z,59.83
2022-11-27T23:05:12.541Z,58.03
2022-11-27T23:10:18.152Z,57.10
2022-11-27T23:15:22.119Z,60.67
2022-11-27T23:20:26.778Z,65.50
2022-11-27T23:25:35.279Z,58.03
2022-11-27T23:30:39.365Z,80.68
2022-11-27T23:35:43.299Z,97.93
2022-11-27T23:40:48.672Z,53.17
2022-11-27T23:45:55.761Z,54.28
2022-11-27T23:50:59.863Z,54.55
2022-11-27T23:56:07.176Z,62.47
